Time;durP1;ratioP1;P1;durP2;ratioP2;P2;SDS_P1;SDS_P2;PMS_P1;PMS_P2;Temp;Humidity;BMP_temperature;BMP_pressure;BME280_temperature;BME280_humidity;BME280_pressure;Samples;Min_cycle;Max_cycle;Signal;HPM_P1;HPM_P2
2023/04/25 00:01:00;;;;;;;5.68;5.20;;;;;;;10.42;100.00;63072.56;5026624;28;20217;-77
2023/04/25 00:03:27;;;;;;;5.72;4.93;;;;;;;10.20;100.00;63050.31;5024752;28;20265;-78
2023/04/25 00:05:56;;;;;;;4.95;4.45;;;;;;;10.10;100.00;63042.53;5025407;28;20209;-77
2023/04/25 00:08:23;;;;;;;4.88;4.50;;;;;;;10.05;100.00;63039.88;5025987;28;20223;-78
2023/04/25 00:10:51;;;;;;;5.22;4.72;;;;;;;10.10;100.00;63039.44;5024250;28;20234;-78
2023/04/25 00:13:19;;;;;;;5.30;4.90;;;;;;;10.17;100.00;63049.75;5024194;28;20222;-79
2023/04/25 00:15:47;;;;;;;5.40;4.90;;;;;;;10.29;100.00;63059.63;5028475;28;20198;-77
2023/04/25 00:18:15;;;;;;;5.30;5.00;;;;;;;9.93;100.00;63019.81;5026272;28;20468;-79
2023/04/25 00:20:46;;;;;;;6.32;5.72;;;;;;;10.07;100.00;63036.34;5007395;28;20195;-77
2023/04/25 00:23:17;;;;;;;4.68;4.38;;;;;;;10.01;100.00;63028.09;5005833;28;20247;-77
2023/04/25 00:25:44;;;;;;;3.78;3.58;;;;;;;9.96;100.00;63019.84;5005363;28;20195;-76
2023/04/25 00:28:13;;;;;;;2.78;2.67;;;;;;;9.94;100.00;63025.94;5007282;28;20258;-77
2023/04/25 00:30:39;;;;;;;1.95;1.85;;;;;;;9.83;100.00;63012.03;5011848;28;20199;-77
2023/04/25 00:33:06;;;;;;;2.90;2.75;;;;;;;9.86;100.00;63015.13;5005774;28;20242;-77
2023/04/25 00:35:34;;;;;;;2.45;2.35;;;;;;;9.87;100.00;63018.69;5004766;28;20204;-77
2023/04/25 00:38:01;;;;;;;2.65;2.15;;;;;;;9.88;100.00;63017.19;5017277;28;20477;-77
2023/04/25 00:40:28;;;;;;;3.30;3.00;;;;;;;9.90;100.00;63018.75;5023006;28;20198;-77
2023/04/25 00:42:55;;;;;;;6.05;5.55;;;;;;;9.89;100.00;63015.16;5024517;28;20223;-77
2023/04/25 00:45:29;;;;;;;7.90;7.13;;;;;;;9.87;100.00;63018.19;5027060;28;20207;-77
2023/04/25 00:47:56;;;;;;;8.73;7.57;;;;;;;9.92;100.00;63020.81;5010455;28;20360;-77
2023/04/25 00:50:23;;;;;;;7.82;7.03;;;;;;;9.93;100.00;63017.28;5025504;28;20230;-78
2023/04/25 00:52:50;;;;;;;7.82;7.10;;;;;;;9.91;100.00;63022.84;5018634;28;20237;-78
2023/04/25 00:55:17;;;;;;;7.13;6.47;;;;;;;9.78;100.00;63008.88;5005952;28;20489;-78
2023/04/25 00:57:45;;;;;;;4.75;4.30;;;;;;;9.82;100.00;63010.47;5017497;28;20226;-77
2023/04/25 01:00:14;;;;;;;5.57;5.18;;;;;;;9.86;100.00;63012.06;5026873;28;20262;-78
2023/04/25 01:02:42;;;;;;;8.70;6.85;;;;;;;9.88;100.00;63016.69;5024520;28;20226;-77
2023/04/25 01:05:10;;;;;;;8.75;6.93;;;;;;;9.87;100.00;63016.16;5021842;28;20203;-76
2023/04/25 01:07:37;;;;;;;6.80;6.20;;;;;;;9.96;100.00;63025.47;5005332;28;20231;-77
2023/04/25 01:10:06;;;;;;;6.60;6.00;;;;;;;10.00;100.00;63029.09;5005721;28;20199;-77
2023/04/25 01:12:33;;;;;;;6.90;5.88;;;;;;;10.03;100.00;63032.72;5006149;28;20246;-78
2023/04/25 01:15:00;;;;;;;5.35;4.85;;;;;;;10.08;100.00;63037.91;5004518;28;20203;-77
2023/04/25 01:17:27;;;;;;;4.40;4.07;;;;;;;10.02;100.00;63034.22;5005354;28;20286;-77
2023/04/25 01:19:56;;;;;;;5.18;4.78;;;;;;;10.05;100.00;63034.25;5005547;28;20199;-78
2023/04/25 01:22:24;;;;;;;4.43;4.03;;;;;;;10.06;100.00;63038.34;5005527;28;20238;-78
2023/04/25 01:24:52;;;;;;;5.13;4.28;;;;;;;10.04;100.00;63036.28;5004496;28;20220;-77
2023/04/25 01:27:20;;;;;;;5.10;4.70;;;;;;;9.90;100.00;63018.75;5014957;28;20218;-78
2023/04/25 01:29:47;;;;;;;4.95;4.60;;;;;;;9.85;100.00;63014.09;5024565;28;20587;-78
2023/04/25 01:32:15;;;;;;;5.22;4.82;;;;;;;9.92;100.00;63023.38;5021730;28;20234;-77
2023/04/25 01:34:43;;;;;;;5.68;5.15;;;;;;;9.81;100.00;63006.91;5008031;28;20223;-78
2023/04/25 01:37:10;;;;;;;6.63;5.32;;;;;;;9.80;100.00;63006.38;5023307;28;20218;-77
2023/04/25 01:39:38;;;;;;;5.47;5.07;;;;;;;9.67;100.00;62992.94;5025557;28;20245;-77
2023/04/25 01:42:05;;;;;;;6.70;6.00;;;;;;;9.51;100.00;62980.97;5010421;28;20227;-76
2023/04/25 01:44:32;;;;;;;6.38;5.63;;;;;;;9.49;100.00;62976.84;5006357;28;20215;-78
2023/04/25 01:46:59;;;;;;;6.45;5.70;;;;;;;9.49;100.00;62979.41;5005508;28;20219;-77
2023/04/25 01:49:27;;;;;;;8.07;7.25;;;;;;;9.52;100.00;62979.44;5021293;28;20414;-76
2023/04/25 01:51:53;;;;;;;7.22;6.53;;;;;;;9.57;100.00;62984.63;5009282;28;20238;-77
2023/04/25 01:54:21;;;;;;;9.32;8.32;;;;;;;9.65;100.00;62990.34;5010211;28;20488;-76
2023/04/25 01:56:53;;;;;;;11.13;9.13;;;;;;;9.63;100.00;62991.34;5010428;28;20227;-76
2023/04/25 01:59:21;;;;;;;13.60;10.98;;;;;;;9.53;100.00;62975.38;5007927;28;20207;-76
2023/04/25 02:01:48;;;;;;;11.80;10.55;;;;;;;9.62;100.00;62990.31;5013150;28;20411;-77
2023/04/25 02:04:16;;;;;;;13.98;11.70;;;;;;;9.68;100.00;62998.53;5008538;28;20215;-76
2023/04/25 02:06:43;;;;;;;18.45;12.55;;;;;;;9.63;100.00;62991.34;5009987;28;20207;-76
2023/04/25 02:09:10;;;;;;;17.92;12.93;;;;;;;9.67;100.00;62989.88;5014283;28;20428;-76
2023/04/25 02:11:38;;;;;;;16.83;13.70;;;;;;;9.83;100.00;63014.56;5009167;28;20203;-77
2023/04/25 02:14:06;;;;;;;16.10;12.95;;;;;;;9.76;100.00;63004.78;5007424;28;20246;-76
2023/04/25 02:16:33;;;;;;;14.95;12.93;;;;;;;9.88;100.00;63019.22;5008381;28;20298;-76
2023/04/25 02:19:01;;;;;;;16.35;12.75;;;;;;;9.95;100.00;63024.44;5006934;28;20206;-76
2023/04/25 02:21:28;;;;;;;15.35;12.70;;;;;;;9.86;100.00;63012.06;5007741;28;20198;-76
2023/04/25 02:23:55;;;;;;;14.85;12.27;;;;;;;9.82;100.00;63008.44;5010292;28;20214;-76
2023/04/25 02:26:23;;;;;;;15.38;12.13;;;;;;;9.92;100.00;63026.41;5014289;28;20421;-77
2023/04/25 02:28:51;;;;;;;18.40;14.35;;;;;;;9.85;100.00;63014.09;5008078;28;20435;-76
2023/04/25 02:31:19;;;;;;;15.02;12.63;;;;;;;9.71;100.00;62999.63;5007579;28;20210;-75
2023/04/25 02:33:46;;;;;;;15.98;12.57;;;;;;;9.64;100.00;62992.38;5007996;28;20528;-76
2023/04/25 02:36:13;;;;;;;16.23;12.10;;;;;;;9.68;100.00;62990.91;5006783;28;20203;-76
2023/04/25 02:38:40;;;;;;;15.70;12.25;;;;;;;9.66;100.00;62994.44;5008842;28;20446;-75
2023/04/25 02:41:07;;;;;;;17.30;12.85;;;;;;;9.70;100.00;62998.56;5007899;28;20199;-75
2023/04/25 02:43:34;;;;;;;16.90;12.63;;;;;;;9.61;100.00;62991.81;5008578;28;20239;-75
2023/04/25 02:46:01;;;;;;;16.13;12.20;;;;;;;9.59;100.00;62987.22;5025463;28;20202;-77
2023/04/25 02:48:30;;;;;;;17.13;13.05;;;;;;;9.53;100.00;62983.53;5014005;28;20242;-76
2023/04/25 02:50:57;;;;;;;17.23;13.93;;;;;;;9.60;100.00;62987.72;5007659;28;20218;-75
2023/04/25 02:53:24;;;;;;;21.15;13.50;;;;;;;9.51;100.00;62978.94;5015418;28;20238;-76
2023/04/25 02:55:52;;;;;;;18.05;13.18;;;;;;;9.57;100.00;62984.63;5008015;28;20204;-76
2023/04/25 02:58:19;;;;;;;19.05;14.45;;;;;;;9.55;100.00;62985.09;5007621;28;20565;-77
2023/04/25 03:00:46;;;;;;;21.65;14.68;;;;;;;9.54;100.00;62979.50;5007245;28;20260;-77
2023/04/25 03:03:13;;;;;;;19.58;13.65;;;;;;;9.47;100.00;62972.25;5007318;28;20219;-76
2023/04/25 03:05:41;;;;;;;14.40;11.13;;;;;;;9.28;100.00;62955.16;5006040;28;20219;-77
2023/04/25 03:08:08;;;;;;;14.05;10.90;;;;;;;9.09;100.00;62941.09;5007584;28;20273;-76
2023/04/25 03:10:35;;;;;;;19.33;12.70;;;;;;;9.00;100.00;62926.72;5007507;28;20531;-76
2023/04/25 03:13:02;;;;;;;20.23;14.18;;;;;;;9.01;100.00;62927.22;5006913;28;20235;-76
2023/04/25 03:15:29;;;;;;;20.23;14.38;;;;;;;9.00;100.00;62924.19;5019962;28;20266;-76
2023/04/25 03:17:56;;;;;;;20.42;14.48;;;;;;;9.10;100.00;62939.06;5026981;28;20222;-76
2023/04/25 03:20:23;;;;;;;21.02;13.98;;;;;;;9.18;100.00;62944.81;5025908;28;20198;-77
2023/04/25 03:22:51;;;;;;;18.08;13.98;;;;;;;9.14;100.00;62935.59;5024543;28;20393;-76
2023/04/25 03:25:18;;;;;;;19.25;14.02;;;;;;;9.15;100.00;62944.78;5006966;28;20196;-75
2023/04/25 03:27:45;;;;;;;19.50;14.05;;;;;;;9.19;100.00;62943.84;5006601;28;20223;-76
2023/04/25 03:30:13;;;;;;;22.05;12.95;;;;;;;9.21;100.00;62947.91;5011184;28;20466;-76
2023/04/25 03:32:39;;;;;;;20.63;13.75;;;;;;;9.23;100.00;62950.50;5018922;28;20239;-76
2023/04/25 03:35:07;;;;;;;15.82;12.70;;;;;;;9.29;100.00;62951.09;5007678;28;20428;-77
2023/04/25 03:37:35;;;;;;;15.00;12.18;;;;;;;9.38;100.00;62962.94;5006934;28;20219;-76
2023/04/25 03:40:04;;;;;;;16.77;12.65;;;;;;;9.26;100.00;62951.06;5005648;28;20207;-76
2023/04/25 03:42:31;;;;;;;20.63;13.18;;;;;;;9.28;100.00;62950.56;5019738;28;20214;-76
2023/04/25 03:44:58;;;;;;;17.13;13.65;;;;;;;9.32;100.00;62959.81;5026250;28;20573;-76
2023/04/25 03:47:25;;;;;;;13.90;11.60;;;;;;;9.41;100.00;62971.13;5021983;28;20603;-74
2023/04/25 03:49:52;;;;;;;14.02;11.32;;;;;;;9.53;100.00;62980.47;5026732;28;20241;-75
2023/04/25 03:52:19;;;;;;;14.35;11.45;;;;;;;9.64;100.00;62996.94;5022193;28;20227;-76
2023/04/25 03:54:46;;;;;;;12.13;10.80;;;;;;;9.71;100.00;62996.56;5006342;28;20288;-76
2023/04/25 03:57:15;;;;;;;11.45;10.27;;;;;;;9.88;100.00;63011.59;5006898;28;20227;-76
2023/04/25 03:59:42;;;;;;;10.00;9.02;;;;;;;10.01;100.00;63025.06;5009674;28;20210;-75
2023/04/25 04:02:09;;;;;;;9.30;8.40;;;;;;;10.24;100.00;63053.94;5005771;28;20227;-76
2023/04/25 04:04:37;;;;;;;7.63;7.03;;;;;;;10.40;100.00;63068.47;5009518;28;20200;-77
2023/04/25 04:07:04;;;;;;;7.05;6.45;;;;;;;10.65;100.00;63096.38;5007339;28;20249;-76
2023/04/25 04:09:31;;;;;;;7.47;6.90;;;;;;;10.86;100.00;63115.56;5005536;28;20206;-75
2023/04/25 04:11:58;;;;;;;5.82;5.32;;;;;;;10.93;100.00;63127.91;5019315;28;20234;-76
2023/04/25 04:14:27;;;;;;;5.18;4.80;;;;;;;11.04;100.00;63136.75;5015150;28;20210;-77
2023/04/25 04:16:54;;;;;;;5.22;4.72;;;;;;;11.17;100.00;63147.13;5022100;28;20288;-76
2023/04/25 04:19:21;;;;;;;7.68;6.75;;;;;;;11.13;100.00;63143.50;5025550;28;20199;-76
2023/04/25 04:21:49;;;;;;;9.48;8.48;;;;;;;10.66;100.00;63097.41;5016408;28;20274;-77
2023/04/25 04:24:17;;;;;;;10.38;7.93;;;;;;;10.47;100.00;63077.75;5005391;28;20210;-76
2023/04/25 04:26:46;;;;;;;11.63;8.60;;;;;;;10.47;100.00;63080.78;5005348;28;20202;-76
2023/04/25 04:29:20;;;;;;;8.07;7.20;;;;;;;10.48;100.00;63078.78;5005945;28;20206;-77
2023/04/25 04:31:49;;;;;;;10.55;8.60;;;;;;;10.49;100.00;63082.38;5007127;28;20265;-77
2023/04/25 04:34:17;;;;;;;11.40;9.10;;;;;;;10.62;100.00;63093.28;5015660;28;20234;-77
2023/04/25 04:36:45;;;;;;;11.45;8.68;;;;;;;10.63;100.00;63094.28;5009049;28;20207;-76
2023/04/25 04:39:13;;;;;;;10.27;8.73;;;;;;;10.63;100.00;63096.34;5006153;28;20431;-75
2023/04/25 04:41:40;;;;;;;11.63;8.70;;;;;;;10.40;100.00;63075.59;5005894;28;20199;-76
2023/04/25 04:44:08;;;;;;;10.80;9.38;;;;;;;10.57;100.00;63085.53;5019999;28;20215;-79
2023/04/25 04:46:37;;;;;;;13.52;10.00;;;;;;;10.65;100.00;63093.81;5005692;28;20415;-77
2023/04/25 04:49:06;;;;;;;11.43;10.00;;;;;;;10.66;100.00;63091.78;5015234;28;20275;-77
2023/04/25 04:51:33;;;;;;;18.02;10.07;;;;;;;10.77;100.00;63108.78;5005496;28;20303;-78
2023/04/25 04:54:02;;;;;;;12.80;10.05;;;;;;;10.94;100.00;63128.44;5018273;28;20227;-76
2023/04/25 04:56:29;;;;;;;11.73;10.48;;;;;;;10.98;100.00;63130.00;5023255;28;20203;-79
2023/04/25 04:58:56;;;;;;;14.95;11.57;;;;;;;11.03;100.00;63135.19;5018388;28;20207;-76
2023/04/25 05:01:23;;;;;;;14.70;11.70;;;;;;;10.77;100.00;63110.84;5012424;28;20245;-76
2023/04/25 05:03:50;;;;;;;14.80;11.45;;;;;;;10.84;100.00;63118.06;5017694;28;20215;-76
2023/04/25 05:06:19;;;;;;;15.45;11.50;;;;;;;10.90;100.00;63121.72;5016386;28;20445;-77
2023/04/25 05:08:46;;;;;;;12.07;10.45;;;;;;;10.77;100.00;63106.25;5007627;28;20570;-75
2023/04/25 05:11:13;;;;;;;18.02;13.45;;;;;;;10.55;100.00;63082.94;5013014;28;20237;-74
2023/04/25 05:13:40;;;;;;;21.15;15.13;;;;;;;10.34;100.00;63064.81;5004492;28;20238;-76
2023/04/25 05:16:07;;;;;;;16.88;13.30;;;;;;;10.30;100.00;63063.22;5008018;28;20210;-75
2023/04/25 05:18:35;;;;;;;18.23;14.32;;;;;;;10.43;100.00;63073.59;5003873;28;20214;-76
2023/04/25 05:21:01;;;;;;;19.40;15.05;;;;;;;10.57;100.00;63082.47;5006364;28;20199;-75
2023/04/25 05:23:30;;;;;;;16.70;13.00;;;;;;;10.43;100.00;63071.56;5008364;28;20215;-76
2023/04/25 05:25:57;;;;;;;18.50;12.45;;;;;;;10.22;100.00;63049.84;5022817;28;20207;-76
2023/04/25 05:28:24;;;;;;;19.48;12.65;;;;;;;10.16;100.00;63043.63;5021808;28;20241;-77
2023/04/25 05:30:52;;;;;;;14.18;11.13;;;;;;;10.18;100.00;63052.84;5008648;28;20258;-74
2023/04/25 05:33:19;;;;;;;15.10;11.63;;;;;;;10.23;100.00;63055.47;5004777;28;20227;-76
2023/04/25 05:35:47;;;;;;;18.13;13.02;;;;;;;10.27;100.00;63057.03;5004957;28;20520;-74
2023/04/25 05:38:14;;;;;;;16.40;13.02;;;;;;;10.04;100.00;63033.22;5007379;28;20261;-77
2023/04/25 05:40:43;;;;;;;17.05;13.10;;;;;;;10.02;100.00;63031.16;5006331;28;20218;-76
2023/04/25 05:43:10;;;;;;;14.75;12.00;;;;;;;10.16;100.00;63045.66;5015743;28;20306;-75
2023/04/25 05:45:37;;;;;;;14.27;11.77;;;;;;;10.31;100.00;63061.19;5024362;28;20407;-76
2023/04/25 05:48:04;;;;;;;12.68;11.38;;;;;;;10.36;100.00;63066.34;5014047;28;20540;-74
2023/04/25 05:50:31;;;;;;;13.00;11.20;;;;;;;10.34;100.00;63064.28;5023995;28;20191;-76
2023/04/25 05:52:58;;;;;;;18.58;14.32;;;;;;;10.47;100.00;63080.78;5016898;28;20234;-75
2023/04/25 05:55:25;;;;;;;22.02;16.33;;;;;;;10.58;100.00;63088.63;5004876;28;20207;-76
2023/04/25 05:57:53;;;;;;;22.33;15.85;;;;;;;10.71;100.00;63105.13;5006156;28;20219;-77
2023/04/25 06:00:22;;;;;;;18.35;14.80;;;;;;;10.88;100.00;63122.72;5004220;28;20246;-75
2023/04/25 06:02:49;;;;;;;15.10;13.40;;;;;;;10.70;100.00;63101.03;5004817;28;20516;-76
2023/04/25 06:05:16;;;;;;;15.65;13.80;;;;;;;10.77;100.00;63110.84;5004513;28;20200;-76
2023/04/25 06:07:43;;;;;;;23.27;17.63;;;;;;;10.83;100.00;63114.47;5017739;28;20228;-75
2023/04/25 06:10:10;;;;;;;27.60;19.77;;;;;;;10.73;100.00;63099.03;5018671;28;20203;-76
2023/04/25 06:12:38;;;;;;;29.48;19.90;;;;;;;10.65;100.00;63090.78;5004404;28;20257;-76
2023/04/25 06:15:07;;;;;;;31.27;20.33;;;;;;;10.69;100.00;63100.50;5004794;28;20450;-75
2023/04/25 06:17:35;;;;;;;31.77;20.83;;;;;;;10.88;100.00;63119.66;5006824;28;20225;-76
2023/04/25 06:20:02;;;;;;;28.25;19.30;;;;;;;11.10;100.00;63142.44;5007720;28;20196;-76
2023/04/25 06:22:29;;;;;;;27.25;19.75;;;;;;;11.20;100.00;63153.31;5020795;28;20225;-76
2023/04/25 06:24:57;;;;;;;21.50;16.90;;;;;;;11.31;100.00;63164.19;5020011;28;20264;-75
2023/04/25 06:27:23;;;;;;;21.80;15.68;;;;;;;11.37;100.00;63165.31;5004274;28;20220;-75
2023/04/25 06:29:50;;;;;;;21.77;16.48;;;;;;;11.25;100.00;63160.53;5009599;28;20209;-76
2023/04/25 06:32:18;;;;;;;17.13;15.07;;;;;;;11.34;100.00;63170.38;5023563;28;20227;-76
2023/04/25 06:34:45;;;;;;;12.00;10.55;;;;;;;11.28;100.00;63164.16;5029549;28;20257;-75
2023/04/25 06:37:12;;;;;;;12.05;10.63;;;;;;;11.18;100.00;63151.25;5023307;28;20218;-75
2023/04/25 06:39:39;;;;;;;13.68;12.27;;;;;;;11.23;100.00;63155.91;5012250;28;20211;-77
2023/04/25 06:42:07;;;;;;;13.20;11.77;;;;;;;11.55;100.00;63194.16;5024620;28;20265;-75
2023/04/25 06:44:34;;;;;;;19.02;11.98;;;;;;;11.77;100.00;63208.81;5029794;28;20217;-76
2023/04/25 06:47:00;;;;;;;14.27;11.15;;;;;;;11.88;100.00;63222.72;5025742;28;20282;-75
2023/04/25 06:49:29;;;;;;;11.32;9.98;;;;;;;12.22;100.00;63260.53;5014864;28;20343;-76
2023/04/25 06:51:57;;;;;;;10.82;9.73;;;;;;;12.65;100.00;63303.06;5009215;28;20246;-76
2023/04/25 06:54:27;;;;;;;9.68;8.68;;;;;;;13.01;100.00;63339.88;5025875;28;20237;-75
2023/04/25 06:56:54;;;;;;;11.15;7.82;;;;;;;12.73;100.00;63311.34;5025207;28;20269;-77
2023/04/25 06:59:21;;;;;;;8.48;7.63;;;;;;;13.03;100.00;63344.03;5025038;28;20199;-76
2023/04/25 07:01:48;;;;;;;8.13;7.00;;;;;;;13.48;100.00;63385.59;5027579;28;20218;-75
2023/04/25 07:04:14;;;;;;;10.55;6.75;;;;;;;13.76;100.00;63414.66;5014063;28;20206;-73
2023/04/25 07:06:43;;;;;;;7.80;7.10;;;;;;;13.59;100.00;63402.13;5023062;28;20199;-75
2023/04/25 07:09:10;;;;;;;8.50;6.68;;;;;;;13.26;100.00;63365.31;5017801;28;20285;-74
2023/04/25 07:11:38;;;;;;;9.20;6.57;;;;;;;13.66;100.00;63409.91;5004708;28;20222;-75
2023/04/25 07:14:04;;;;;;;6.72;6.13;;;;;;;13.70;100.00;63411.00;5005306;28;20264;-76
2023/04/25 07:16:31;;;;;;;9.82;6.38;;;;;;;13.75;100.00;63416.19;5008454;28;20208;-75
2023/04/25 07:18:59;;;;;;;6.95;6.30;;;;;;;13.64;100.00;63400.16;5009007;28;20199;-76
2023/04/25 07:21:26;;;;;;;7.13;6.18;;;;;;;13.59;100.00;63397.53;5008932;28;20519;-76
2023/04/25 07:23:54;;;;;;;8.35;6.72;;;;;;;13.56;100.00;63399.53;5010124;28;20202;-75
2023/04/25 07:26:21;;;;;;;9.02;7.28;;;;;;;13.66;100.00;63402.25;5015367;28;20203;-76
2023/04/25 07:28:50;;;;;;;7.47;6.68;;;;;;;13.78;100.00;63424.41;5018893;28;20237;-75
2023/04/25 07:31:18;;;;;;;6.80;6.10;;;;;;;13.89;100.00;63428.16;5007135;28;20215;-75
2023/04/25 07:33:45;;;;;;;7.55;6.82;;;;;;;13.88;100.00;63427.63;5009557;28;20231;-76
2023/04/25 07:36:15;;;;;;;6.70;6.10;;;;;;;13.98;100.00;63445.16;5020471;28;20203;-77
2023/04/25 07:38:42;;;;;;;7.47;6.88;;;;;;;13.90;100.00;63429.72;5014384;28;20223;-76
2023/04/25 07:41:11;;;;;;;9.55;6.20;;;;;;;13.65;100.00;63413.97;5008895;28;20199;-75
2023/04/25 07:43:38;;;;;;;9.18;7.13;;;;;;;13.45;100.00;63385.03;5009744;28;20358;-77
2023/04/25 07:46:06;;;;;;;9.23;7.03;;;;;;;13.55;100.00;63395.94;5009164;28;20199;-75
2023/04/25 07:48:33;;;;;;;9.98;7.30;;;;;;;13.80;100.00;63419.31;5019681;28;20531;-76
2023/04/25 07:51:00;;;;;;;8.15;7.35;;;;;;;13.72;100.00;63413.03;5012143;28;20210;-77
2023/04/25 07:53:27;;;;;;;7.32;6.63;;;;;;;13.65;100.00;63403.75;5013378;28;20231;-76
2023/04/25 07:55:53;;;;;;;9.27;6.93;;;;;;;13.58;100.00;63396.47;5006090;28;20207;-74
2023/04/25 07:58:23;;;;;;;8.55;7.38;;;;;;;13.78;100.00;63424.94;5006908;28;20220;-77
2023/04/25 08:00:50;;;;;;;7.22;6.43;;;;;;;13.94;100.00;63435.91;5006595;28;20520;-77
2023/04/25 08:03:17;;;;;;;8.70;7.03;;;;;;;14.02;100.00;63446.75;5025838;28;20248;-76
2023/04/25 08:05:45;;;;;;;8.05;6.82;;;;;;;14.13;100.00;63458.19;5027588;28;20207;-77
2023/04/25 08:08:13;;;;;;;8.18;7.20;;;;;;;14.19;100.00;63459.28;5026036;28;20238;-75
2023/04/25 08:10:40;;;;;;;7.85;6.90;;;;;;;14.12;100.00;63452.00;5009324;28;20262;-76
2023/04/25 08:13:07;;;;;;;7.57;6.90;;;;;;;13.94;100.00;63433.84;5014655;28;20214;-75
2023/04/25 08:15:37;;;;;;;7.75;6.95;;;;;;;14.26;100.00;63466.56;5025916;28;20230;-76
2023/04/25 08:18:04;;;;;;;7.85;7.05;;;;;;;14.58;100.00;63504.41;5025696;28;20250;-77
2023/04/25 08:20:31;;;;;;;8.68;6.35;;;;;;;14.92;100.00;63537.16;5025421;28;20209;-78
2023/04/25 08:22:57;;;;;;;8.15;6.28;;;;;;;14.96;100.00;63541.84;5026884;28;20270;-76
2023/04/25 08:25:25;;;;;;;5.72;5.30;;;;;;;15.28;100.00;63577.13;5025878;28;20210;-76
2023/04/25 08:27:52;;;;;;;9.00;6.32;;;;;;;15.56;100.00;63603.19;5025419;28;20222;-76
2023/04/25 08:30:19;;;;;;;7.55;3.95;;;;;;;15.44;99.66;63590.72;5005737;28;20195;-74
2023/04/25 08:32:47;;;;;;;3.78;3.58;;;;;;;15.40;96.45;63586.53;5009895;28;20227;-75
2023/04/25 08:35:16;;;;;;;4.63;4.22;;;;;;;15.28;97.15;63574.56;5011979;28;20245;-77
2023/04/25 08:37:43;;;;;;;3.42;3.13;;;;;;;15.44;94.44;63590.72;5012928;28;20411;-76
2023/04/25 08:40:15;;;;;;;3.50;3.20;;;;;;;15.74;94.05;63621.88;5009397;28;20198;-76
2023/04/25 08:42:43;;;;;;;3.60;3.20;;;;;;;15.98;87.78;63647.34;5009153;28;20269;-76
2023/04/25 08:45:11;;;;;;;3.55;3.20;;;;;;;16.26;90.27;63672.88;5009769;28;20210;-76
2023/04/25 08:47:41;;;;;;;6.20;2.97;;;;;;;16.34;86.77;63683.78;5017507;28;20252;-76
2023/04/25 08:50:10;;;;;;;3.70;2.90;;;;;;;16.53;85.06;63708.69;5030044;28;20203;-75
2023/04/25 08:52:40;;;;;;;3.13;2.85;;;;;;;16.74;79.46;63725.41;5025440;28;20206;-75
2023/04/25 08:55:10;;;;;;;3.28;2.20;;;;;;;16.18;73.20;63668.16;5009120;28;20234;-75
2023/04/25 08:57:38;;;;;;;3.13;2.42;;;;;;;15.54;76.84;63601.09;5009987;28;20322;-76
2023/04/25 09:00:07;;;;;;;3.10;2.78;;;;;;;15.00;87.74;63546.00;5011381;28;20214;-78
2023/04/25 09:02:35;;;;;;;2.65;2.55;;;;;;;14.85;83.62;63527.34;5017509;28;20257;-76
2023/04/25 09:05:04;;;;;;;2.90;2.80;;;;;;;15.00;86.64;63548.56;5029537;28;20198;-75
2023/04/25 09:07:32;;;;;;;2.70;2.50;;;;;;;15.17;85.40;63563.13;5028576;28;20218;-76
2023/04/25 09:10:03;;;;;;;5.15;2.78;;;;;;;15.38;84.92;63587.00;5008843;28;20499;-75
2023/04/25 09:12:30;;;;;;;3.47;2.60;;;;;;;15.71;84.85;63618.75;5009272;28;20500;-77
2023/04/25 09:15:06;;;;;;;2.17;2.05;;;;;;;15.57;79.29;63604.72;5007866;28;20233;-75
2023/04/25 09:17:33;;;;;;;3.67;3.47;;;;;;;15.20;88.87;63565.75;5005155;28;20250;-74
2023/04/25 09:20:08;;;;;;;4.88;3.78;;;;;;;15.01;91.86;63552.16;5006587;28;20187;-75
2023/04/25 09:22:38;;;;;;;5.88;4.03;;;;;;;15.12;92.36;63555.38;5004580;28;20245;-78
2023/04/25 09:25:10;;;;;;;4.38;3.40;;;;;;;15.03;84.40;63551.69;5004072;28;20198;-75
2023/04/25 09:27:37;;;;;;;3.35;3.13;;;;;;;15.27;89.10;63573.53;5012219;28;20241;-75
2023/04/25 09:30:05;;;;;;;3.20;3.10;;;;;;;15.41;93.40;63590.16;5023033;28;20277;-76
2023/04/25 09:32:32;;;;;;;4.15;3.38;;;;;;;15.65;87.23;63613.03;5007953;28;20250;-77
2023/04/25 09:34:59;;;;;;;3.95;3.63;;;;;;;15.83;81.04;63628.66;5024498;28;20264;-75
2023/04/25 09:37:28;;;;;;;5.13;4.30;;;;;;;15.22;100.00;63568.31;5024108;28;20229;-75
2023/04/25 09:39:58;;;;;;;6.70;5.53;;;;;;;14.93;100.00;63540.75;5018133;28;20391;-75
2023/04/25 09:42:26;;;;;;;9.23;6.25;;;;;;;14.90;100.00;63535.09;5019800;28;20222;-75
2023/04/25 09:44:55;;;;;;;9.77;6.45;;;;;;;14.83;100.00;63528.34;5005497;28;20211;-75
2023/04/25 09:47:23;;;;;;;10.65;6.47;;;;;;;14.80;100.00;63524.69;5006753;28;20237;-75
2023/04/25 09:49:51;;;;;;;7.97;5.75;;;;;;;14.73;100.00;63520.53;5009302;28;20207;-76
2023/04/25 09:52:20;;;;;;;6.70;5.97;;;;;;;14.73;100.00;63517.94;5023055;28;20222;-75
2023/04/25 09:54:47;;;;;;;6.65;5.95;;;;;;;14.73;100.00;63514.88;5012301;28;20455;-76
2023/04/25 09:57:17;;;;;;;8.45;6.30;;;;;;;14.90;100.00;63540.75;5025004;28;20229;-75
2023/04/25 09:59:46;;;;;;;5.85;5.38;;;;;;;14.89;100.00;63534.06;5022355;28;20211;-74
2023/04/25 10:02:15;;;;;;;4.55;4.25;;;;;;;14.83;100.00;63530.38;5004333;28;20262;-75
2023/04/25 10:04:42;;;;;;;4.97;4.05;;;;;;;14.88;100.00;63533.00;5006928;28;20424;-74
2023/04/25 10:07:11;;;;;;;3.60;3.30;;;;;;;14.97;100.00;63544.94;5020410;28;20219;-75
2023/04/25 10:09:40;;;;;;;3.47;3.17;;;;;;;14.98;100.00;63546.47;5013292;28;20509;-76
2023/04/25 10:12:08;;;;;;;3.58;3.25;;;;;;;14.87;100.00;63537.63;5003467;28;20235;-75
2023/04/25 10:14:37;;;;;;;3.55;3.35;;;;;;;14.80;100.00;63527.25;5006660;28;20230;-76
2023/04/25 10:17:04;;;;;;;2.35;2.15;;;;;;;15.10;97.15;63553.28;5007581;28;20229;-75
2023/04/25 10:19:31;;;;;;;2.55;2.45;;;;;;;15.35;99.23;63578.75;5021872;28;20212;-74
2023/04/25 10:22:08;;;;;;;1.25;1.23;;;;;;;15.21;84.96;63569.34;5024386;28;20215;-75
2023/04/25 10:24:36;;;;;;;0.93;0.93;;;;;;;15.33;79.75;63577.19;5014864;28;20206;-75
2023/04/25 10:27:05;;;;;;;1.95;0.80;;;;;;;15.02;73.03;63550.66;5021579;28;20293;-74
2023/04/25 10:29:32;;;;;;;0.57;0.57;;;;;;;15.13;68.00;63556.44;5012753;28;20205;-74
2023/04/25 10:32:01;;;;;;;0.80;0.80;;;;;;;15.15;72.85;63561.06;5021200;28;20246;-76
2023/04/25 10:34:40;;;;;;;0.93;0.82;;;;;;;15.26;67.34;63574.53;5010786;28;21269;-76
2023/04/25 10:37:10;;;;;;;1.23;0.75;;;;;;;15.11;66.39;63556.91;5025577;28;20210;-76
2023/04/25 10:39:40;;;;;;;3.17;0.60;;;;;;;14.92;68.43;63540.25;5021264;28;20187;-74
2023/04/25 10:42:08;;;;;;;0.98;0.90;;;;;;;14.62;68.02;63506.53;5012340;28;20211;-76
2023/04/25 10:44:37;;;;;;;1.58;0.90;;;;;;;14.57;68.23;63503.38;5020533;28;20227;-75
2023/04/25 10:47:09;;;;;;;0.63;0.63;;;;;;;14.88;62.71;63535.56;5013118;28;20221;-74
2023/04/25 10:49:38;;;;;;;1.65;0.52;;;;;;;15.07;61.29;63553.28;5010146;28;20195;-75
2023/04/25 10:52:27;;;;;;;0.47;0.47;;;;;;;14.98;57.79;63536.22;5011387;28;20226;-77
2023/04/25 10:54:55;;;;;;;0.95;0.52;;;;;;;14.96;60.38;63543.91;5010553;28;20231;-76
2023/04/25 10:57:33;;;;;;;0.55;0.40;;;;;;;14.94;59.94;63539.25;5009351;28;20238;-76
2023/04/25 11:00:10;;;;;;;0.90;0.90;;;;;;;14.81;60.86;63528.28;5029496;28;20229;-75
2023/04/25 11:02:46;;;;;;;0.60;0.60;;;;;;;14.66;67.53;63508.13;5010685;28;20230;-76
2023/04/25 11:05:33;;;;;;;0.80;0.77;;;;;;;14.13;83.86;63457.66;5011500;28;20195;-76
2023/04/25 11:08:00;;;;;;;0.88;0.88;;;;;;;13.74;90.17;63418.22;5012173;28;20218;-75
2023/04/25 11:10:28;;;;;;;1.13;0.68;;;;;;;13.43;98.35;63380.41;5009784;28;20199;-75
2023/04/25 11:12:55;;;;;;;1.65;0.77;;;;;;;13.17;100.00;63353.41;5008416;28;20481;-75
2023/04/25 11:15:21;;;;;;;0.70;0.70;;;;;;;12.95;100.00;63333.16;5006234;28;20222;-74
2023/04/25 11:17:52;;;;;;;1.48;0.50;;;;;;;13.05;100.00;63343.53;5008017;28;20258;-75
2023/04/25 11:20:19;;;;;;;0.40;0.35;;;;;;;13.24;100.00;63363.75;5008033;28;20199;-75
2023/04/25 11:22:48;;;;;;;0.75;0.73;;;;;;;13.29;100.00;63374.06;5009353;28;20570;-76
2023/04/25 11:25:16;;;;;;;0.50;0.50;;;;;;;13.52;100.00;63392.31;5006927;28;20214;-76